Time;durP1;ratioP1;P1;durP2;ratioP2;P2;SDS_P1;SDS_P2;PMS_P1;PMS_P2;Temp;Humidity;BMP_temperature;BMP_pressure;BME280_temperature;BME280_humidity;BME280_pressure;Samples;Min_cycle;Max_cycle;Signal;HPM_P1;HPM_P2
2024/03/17 00:00:18;;;;;;;;;;;17.90;62.70;;;;;;5039368;28;1543;-73
2024/03/17 00:02:43;;;;;;;;;;;17.90;62.70;;;;;;5037962;28;1141;-73
2024/03/17 00:05:09;;;;;;;;;;;17.90;62.70;;;;;;5037152;28;1981;-73
2024/03/17 00:07:34;;;;;;;;;;;17.90;62.80;;;;;;5045651;28;1826;-73
2024/03/17 00:10:00;;;;;;;;;;;17.90;62.80;;;;;;5038673;28;872;-73
2024/03/17 00:12:25;;;;;;;;;;;17.90;62.80;;;;;;5039644;28;1141;-73
2024/03/17 00:14:51;;;;;;;;;;;17.90;62.80;;;;;;5040522;28;1268;-73
2024/03/17 00:17:17;;;;;;;;;;;17.90;62.80;;;;;;5039339;28;1460;-72
2024/03/17 00:19:42;;;;;;;;;;;17.90;62.80;;;;;;5035542;28;1529;-73
2024/03/17 00:22:13;;;;;;;;;;;17.90;63.60;;;;;;5039622;28;1260;-73
2024/03/17 00:24:38;;;;;;;;;;;17.90;62.80;;;;;;5036209;28;1355;-73
2024/03/17 00:27:04;;;;;;;;;;;17.90;62.80;;;;;;5037597;28;1902;-73
2024/03/17 00:29:29;;;;;;;;;;;17.90;62.80;;;;;;5046678;28;1472;-73
2024/03/17 00:31:56;;;;;;;;;;;17.90;62.90;;;;;;5036605;28;1493;-73
2024/03/17 00:34:21;;;;;;;;;;;17.90;62.80;;;;;;5034429;28;1489;-73
2024/03/17 00:36:47;;;;;;;;;;;17.90;62.90;;;;;;5035912;28;883;-73
2024/03/17 00:39:14;;;;;;;;;;;17.90;62.80;;;;;;5040101;28;1479;-72
2024/03/17 00:41:39;;;;;;;;;;;17.90;62.90;;;;;;5024239;28;1479;-73
2024/03/17 00:44:06;;;;;;;;;;;17.90;62.90;;;;;;5041190;28;1551;-73
2024/03/17 00:46:31;;;;;;;;;;;17.90;62.90;;;;;;5035470;28;1894;-73
2024/03/17 00:48:58;;;;;;;;;;;17.90;62.90;;;;;;5042287;28;1408;-73
2024/03/17 00:51:23;;;;;;;;;;;17.90;62.90;;;;;;5045275;28;1539;-73
2024/03/17 00:53:49;;;;;;;;;;;17.80;62.80;;;;;;5049328;28;1619;-73
2024/03/17 00:56:14;;;;;;;;;;;17.90;62.90;;;;;;5042536;28;1453;-73
2024/03/17 00:58:41;;;;;;;;;;;17.80;62.80;;;;;;5041078;28;1292;-73
2024/03/17 01:01:06;;;;;;;;;;;17.80;62.80;;;;;;5040317;28;1681;-74
2024/03/17 01:03:32;;;;;;;;;;;17.80;62.80;;;;;;5043956;28;1562;-73
2024/03/17 01:05:57;;;;;;;;;;;17.80;62.80;;;;;;5039360;28;1898;-73
2024/03/17 01:08:23;;;;;;;;;;;17.80;62.90;;;;;;5041299;28;1712;-73
2024/03/17 01:10:49;;;;;;;;;;;17.80;63.60;;;;;;5041826;28;1107;-73
2024/03/17 01:13:15;;;;;;;;;;;17.80;62.90;;;;;;5040443;28;1522;-73
2024/03/17 01:15:40;;;;;;;;;;;17.80;62.90;;;;;;5043285;28;1644;-73
2024/03/17 01:18:06;;;;;;;;;;;17.80;62.90;;;;;;5039324;28;1448;-73
2024/03/17 01:20:32;;;;;;;;;;;17.80;62.90;;;;;;5041953;28;1750;-73
2024/03/17 01:22:57;;;;;;;;;;;17.80;62.90;;;;;;5040119;28;1438;-73
2024/03/17 01:25:25;;;;;;;;;;;17.80;62.90;;;;;;5043301;28;1965;-73
2024/03/17 01:27:51;;;;;;;;;;;17.80;62.90;;;;;;5042659;28;1402;-73
2024/03/17 01:30:16;;;;;;;;;;;17.80;62.90;;;;;;5048711;28;1588;-73
2024/03/17 01:32:42;;;;;;;;;;;17.80;62.90;;;;;;5039164;28;1282;-73
2024/03/17 01:35:08;;;;;;;;;;;17.80;62.90;;;;;;5041738;28;1388;-73
2024/03/17 01:37:33;;;;;;;;;;;17.80;62.90;;;;;;5039070;28;1354;-73
2024/03/17 01:39:59;;;;;;;;;;;17.80;62.90;;;;;;5041326;28;1330;-73
2024/03/17 01:42:24;;;;;;;;;;;17.80;62.90;;;;;;5074494;28;1551;-73
2024/03/17 01:44:52;;;;;;;;;;;17.80;62.90;;;;;;5038188;28;1368;-73
2024/03/17 01:47:18;;;;;;;;;;;17.80;62.90;;;;;;5040711;28;1926;-73
2024/03/17 01:49:45;;;;;;;;;;;17.80;62.90;;;;;;5042696;28;1482;-73
2024/03/17 01:52:10;;;;;;;;;;;17.80;62.90;;;;;;5041894;28;1260;-73
2024/03/17 01:54:37;;;;;;;;;;;17.80;62.90;;;;;;5038843;28;1801;-73
2024/03/17 01:57:02;;;;;;;;;;;17.80;62.90;;;;;;5039620;28;1456;-73
2024/03/17 01:59:28;;;;;;;;;;;17.80;62.90;;;;;;5038274;28;1463;-73
2024/03/17 02:01:53;;;;;;;;;;;17.80;63.00;;;;;;5039984;28;847;-73
2024/03/17 02:04:18;;;;;;;;;;;17.80;62.90;;;;;;5042226;28;1365;-73
2024/03/17 02:06:44;;;;;;;;;;;17.80;63.00;;;;;;5041243;28;1919;-73
2024/03/17 02:09:11;;;;;;;;;;;17.80;63.00;;;;;;5041194;28;1467;-73
2024/03/17 02:11:36;;;;;;;;;;;17.80;63.00;;;;;;5049307;28;1345;-72
2024/03/17 02:14:02;;;;;;;;;;;17.80;63.00;;;;;;5042401;28;1636;-73
2024/03/17 02:16:28;;;;;;;;;;;17.80;63.00;;;;;;5040765;28;1352;-73
2024/03/17 02:18:54;;;;;;;;;;;17.80;63.00;;;;;;5073276;28;1179;-73
2024/03/17 02:21:22;;;;;;;;;;;17.80;63.00;;;;;;5040443;28;1613;-73
2024/03/17 02:23:48;;;;;;;;;;;17.80;63.00;;;;;;5058143;28;1340;-73
2024/03/17 02:26:13;;;;;;;;;;;17.80;63.00;;;;;;5040033;28;1934;-73
2024/03/17 02:28:39;;;;;;;;;;;17.80;63.00;;;;;;5041105;28;1283;-73
2024/03/17 02:31:06;;;;;;;;;;;17.80;63.00;;;;;;5037956;28;1327;-73
2024/03/17 02:33:32;;;;;;;;;;;17.80;63.00;;;;;;5043579;28;1349;-73
2024/03/17 02:35:57;;;;;;;;;;;17.80;63.00;;;;;;5027375;28;1568;-73
2024/03/17 02:41:06;;;;;;;;;;;17.80;63.00;;;;;;5039667;28;1569;-73
2024/03/17 02:43:32;;;;;;;;;;;17.80;63.00;;;;;;5032322;28;1684;-74
2024/03/17 02:45:58;;;;;;;;;;;17.80;63.00;;;;;;5038259;28;1898;-72
2024/03/17 02:48:23;;;;;;;;;;;17.80;63.00;;;;;;5039221;28;1014;-73
2024/03/17 02:50:49;;;;;;;;;;;17.80;63.00;;;;;;5040348;28;1020;-73
2024/03/17 02:53:14;;;;;;;;;;;17.80;62.90;;;;;;5040420;28;1347;-73
2024/03/17 02:55:40;;;;;;;;;;;17.80;62.90;;;;;;5043656;28;891;-73
2024/03/17 02:58:06;;;;;;;;;;;17.80;62.90;;;;;;5023148;28;1209;-73
2024/03/17 03:00:32;;;;;;;;;;;17.80;62.90;;;;;;5040453;28;946;-73
2024/03/17 03:02:57;;;;;;;;;;;17.80;62.90;;;;;;5035518;28;1422;-72
2024/03/17 03:05:23;;;;;;;;;;;17.80;62.80;;;;;;5047847;28;1914;-73
2024/03/17 03:07:48;;;;;;;;;;;17.80;62.80;;;;;;5042387;28;1312;-72
2024/03/17 03:10:14;;;;;;;;;;;17.80;62.80;;;;;;5043733;28;1428;-73
2024/03/17 03:12:39;;;;;;;;;;;17.80;62.80;;;;;;5041575;28;1877;-73
2024/03/17 03:15:05;;;;;;;;;;;17.90;62.80;;;;;;5041918;28;1317;-71
2024/03/17 03:17:30;;;;;;;;;;;17.90;62.80;;;;;;5040738;28;1529;-70
2024/03/17 03:19:56;;;;;;;;;;;17.90;62.80;;;;;;5042721;28;1346;-74
2024/03/17 03:22:21;;;;;;;;;;;17.90;62.80;;;;;;5040635;28;1336;-73
2024/03/17 03:24:47;;;;;;;;;;;17.90;62.80;;;;;;5040368;28;1654;-72
2024/03/17 03:27:13;;;;;;;;;;;17.90;62.80;;;;;;5044206;28;1961;-72
2024/03/17 03:29:38;;;;;;;;;;;17.90;62.70;;;;;;5043385;28;1351;-71
2024/03/17 03:32:04;;;;;;;;;;;17.90;62.70;;;;;;5040435;28;1285;-73
2024/03/17 03:34:29;;;;;;;;;;;17.90;62.70;;;;;;5038229;28;1548;-71
2024/03/17 03:36:56;;;;;;;;;;;17.90;62.70;;;;;;5040513;28;1347;-72
2024/03/17 03:39:21;;;;;;;;;;;17.90;62.70;;;;;;5041632;28;1447;-72
2024/03/17 03:41:47;;;;;;;;;;;17.90;62.70;;;;;;5038811;28;1259;-72
2024/03/17 03:44:13;;;;;;;;;;;17.90;62.70;;;;;;5036577;28;1281;-72
2024/03/17 03:46:38;;;;;;;;;;;17.90;62.70;;;;;;5039377;28;1906;-72
2024/03/17 03:49:04;;;;;;;;;;;17.90;62.70;;;;;;5038964;28;1758;-75
2024/03/17 03:51:29;;;;;;;;;;;17.90;62.70;;;;;;5037978;28;1543;-74
2024/03/17 03:53:55;;;;;;;;;;;17.90;62.70;;;;;;5036458;28;1280;-75
2024/03/17 03:56:20;;;;;;;;;;;17.90;62.70;;;;;;5039453;28;1513;-75
2024/03/17 03:58:46;;;;;;;;;;;17.90;62.70;;;;;;5038486;28;1508;-75
2024/03/17 04:01:11;;;;;;;;;;;17.90;62.60;;;;;;5042308;28;1483;-75
2024/03/17 04:03:37;;;;;;;;;;;17.90;62.70;;;;;;5040027;28;1360;-75
2024/03/17 04:06:04;;;;;;;;;;;17.90;62.70;;;;;;5037336;28;1963;-75
2024/03/17 04:08:30;;;;;;;;;;;17.90;62.70;;;;;;5039065;28;1384;-75
2024/03/17 04:10:56;;;;;;;;;;;17.90;62.60;;;;;;5038652;28;1436;-75
2024/03/17 04:13:21;;;;;;;;;;;17.90;62.70;;;;;;5037657;28;1473;-75
2024/03/17 04:15:48;;;;;;;;;;;17.90;62.60;;;;;;5021242;28;1538;-75
2024/03/17 04:18:15;;;;;;;;;;;17.90;62.60;;;;;;5039013;28;2077;-73
2024/03/17 04:20:41;;;;;;;;;;;17.90;62.70;;;;;;5038847;28;1939;-76
2024/03/17 04:23:07;;;;;;;;;;;17.90;62.70;;;;;;5044592;28;1284;-77
2024/03/17 04:25:32;;;;;;;;;;;17.90;62.60;;;;;;5045677;28;1879;-77
2024/03/17 04:27:58;;;;;;;;;;;17.90;62.70;;;;;;5049660;28;1081;-78
2024/03/17 04:30:23;;;;;;;;;;;17.90;62.60;;;;;;5048477;28;1186;-74
2024/03/17 04:32:49;;;;;;;;;;;17.90;62.70;;;;;;5026334;28;1325;-75
2024/03/17 04:35:15;;;;;;;;;;;17.90;62.70;;;;;;5041623;28;1499;-74
2024/03/17 04:37:40;;;;;;;;;;;17.90;62.60;;;;;;5052814;28;1500;-75
2024/03/17 04:40:09;;;;;;;;;;;17.90;62.60;;;;;;5043629;28;1633;-76
2024/03/17 04:42:34;;;;;;;;;;;17.90;62.60;;;;;;5041606;28;1340;-73
2024/03/17 04:45:00;;;;;;;;;;;17.90;62.70;;;;;;5043698;28;1337;-72
2024/03/17 04:47:25;;;;;;;;;;;17.90;62.60;;;;;;5039998;28;1961;-71
2024/03/17 04:49:51;;;;;;;;;;;17.90;62.60;;;;;;5040443;28;1386;-73
2024/03/17 04:52:16;;;;;;;;;;;17.90;62.60;;;;;;5043932;28;1439;-71
2024/03/17 04:54:42;;;;;;;;;;;17.90;62.60;;;;;;5043367;28;1562;-71
2024/03/17 04:57:08;;;;;;;;;;;17.90;62.60;;;;;;5041617;28;1125;-72
2024/03/17 04:59:35;;;;;;;;;;;17.90;62.60;;;;;;5040429;28;1490;-72
2024/03/17 05:02:00;;;;;;;;;;;17.90;62.60;;;;;;5039218;28;1346;-71
2024/03/17 05:04:25;;;;;;;;;;;17.90;62.60;;;;;;5036519;28;1464;-68
2024/03/17 05:06:51;;;;;;;;;;;17.90;62.60;;;;;;5041513;28;1914;-68
2024/03/17 05:09:17;;;;;;;;;;;17.90;62.60;;;;;;5040984;28;1520;-71
2024/03/17 05:11:42;;;;;;;;;;;17.90;62.60;;;;;;5041535;28;1121;-71
2024/03/17 05:14:08;;;;;;;;;;;17.90;63.30;;;;;;5041332;28;1315;-69
2024/03/17 05:16:33;;;;;;;;;;;18.00;62.60;;;;;;5071753;28;1376;-68
2024/03/17 05:18:59;;;;;;;;;;;18.00;62.50;;;;;;5042080;28;1237;-67
2024/03/17 05:21:25;;;;;;;;;;;17.90;62.40;;;;;;5024388;28;1538;-67
2024/03/17 05:23:51;;;;;;;;;;;18.00;62.40;;;;;;5073876;28;1530;-70
2024/03/17 05:26:17;;;;;;;;;;;18.00;63.10;;;;;;5041743;28;1928;-68
2024/03/17 05:28:43;;;;;;;;;;;18.00;62.20;;;;;;5058103;28;1285;-68
2024/03/17 05:31:08;;;;;;;;;;;18.00;62.10;;;;;;5050195;28;1156;-69
2024/03/17 05:33:34;;;;;;;;;;;18.10;62.10;;;;;;5041856;28;1256;-69
2024/03/17 05:36:02;;;;;;;;;;;18.10;62.10;;;;;;5041128;28;1195;-70
2024/03/17 05:38:28;;;;;;;;;;;18.10;62.00;;;;;;5042544;28;1007;-70
2024/03/17 05:40:56;;;;;;;;;;;18.10;61.90;;;;;;5041230;28;859;-69
2024/03/17 05:43:23;;;;;;;;;;;18.10;61.90;;;;;;5041019;28;1263;-67
2024/03/17 05:45:50;;;;;;;;;;;18.10;61.80;;;;;;5038605;28;1897;-67
2024/03/17 05:48:15;;;;;;;;;;;18.10;61.70;;;;;;5042361;28;1118;-67
2024/03/17 05:50:41;;;;;;;;;;;18.20;61.70;;;;;;5044347;28;1769;-67
2024/03/17 05:53:06;;;;;;;;;;;18.20;61.70;;;;;;5038793;28;1579;-71
2024/03/17 05:55:34;;;;;;;;;;;18.20;61.70;;;;;;5041415;28;1439;-69
2024/03/17 05:58:00;;;;;;;;;;;18.20;61.60;;;;;;5041256;28;1359;-68
2024/03/17 06:00:25;;;;;;;;;;;18.20;61.60;;;;;;5042460;28;1338;-70
2024/03/17 06:02:51;;;;;;;;;;;18.20;61.60;;;;;;5040347;28;1597;-70
2024/03/17 06:05:16;;;;;;;;;;;18.20;61.50;;;;;;5039834;28;1583;-70
2024/03/17 06:07:42;;;;;;;;;;;18.20;61.50;;;;;;5041794;28;1963;-70
2024/03/17 06:10:08;;;;;;;;;;;18.20;61.50;;;;;;5039039;28;1293;-69
2024/03/17 06:12:33;;;;;;;;;;;18.30;61.50;;;;;;5040104;28;1559;-69
2024/03/17 06:14:59;;;;;;;;;;;18.20;61.50;;;;;;5042318;28;1474;-69
2024/03/17 06:17:26;;;;;;;;;;;18.20;61.40;;;;;;5039779;28;1418;-70
2024/03/17 06:19:51;;;;;;;;;;;18.20;61.40;;;;;;5042620;28;1371;-69
2024/03/17 06:22:17;;;;;;;;;;;18.20;61.40;;;;;;5048546;28;1379;-70
2024/03/17 06:24:42;;;;;;;;;;;18.20;61.40;;;;;;5042743;28;1662;-69
2024/03/17 06:27:08;;;;;;;;;;;18.30;61.40;;;;;;5041467;28;1953;-69
2024/03/17 06:29:33;;;;;;;;;;;18.20;61.40;;;;;;5040270;28;1438;-69
2024/03/17 06:31:59;;;;;;;;;;;18.30;61.40;;;;;;5040905;28;1400;-69
2024/03/17 06:34:25;;;;;;;;;;;18.20;61.30;;;;;;5039399;28;1415;-69
2024/03/17 06:36:51;;;;;;;;;;;18.30;61.40;;;;;;5040182;28;1716;-69
2024/03/17 06:39:16;;;;;;;;;;;18.30;61.40;;;;;;5039969;28;1436;-71
2024/03/17 06:41:42;;;;;;;;;;;18.30;61.40;;;;;;5038276;28;1591;-68
2024/03/17 06:44:08;;;;;;;;;;;18.30;61.40;;;;;;5042910;28;1308;-69
2024/03/17 06:46:33;;;;;;;;;;;18.30;61.40;;;;;;5038481;28;1914;-69
2024/03/17 06:48:59;;;;;;;;;;;18.30;61.40;;;;;;5038513;28;1487;-70
2024/03/17 06:51:25;;;;;;;;;;;18.30;61.40;;;;;;5040178;28;1473;-71
2024/03/17 06:53:50;;;;;;;;;;;18.30;61.40;;;;;;5040343;28;1495;-71
2024/03/17 06:56:16;;;;;;;;;;;18.20;61.30;;;;;;5036130;28;1192;-70
2024/03/17 06:58:41;;;;;;;;;;;18.20;61.40;;;;;;5039528;28;1686;-71
2024/03/17 07:01:07;;;;;;;;;;;18.20;61.40;;;;;;5037700;28;1544;-71
2024/03/17 07:03:32;;;;;;;;;;;18.20;61.40;;;;;;5024486;28;1565;-71
2024/03/17 07:05:58;;;;;;;;;;;18.20;61.40;;;;;;5040586;28;1898;-70
2024/03/17 07:08:24;;;;;;;;;;;18.20;61.40;;;;;;5047187;28;1474;-70
2024/03/17 07:10:56;;;;;;;;;;;18.20;61.40;;;;;;5041207;28;1571;-74
2024/03/17 07:13:21;;;;;;;;;;;18.20;61.40;;;;;;5038151;28;1277;-73
2024/03/17 07:15:47;;;;;;;;;;;18.20;61.40;;;;;;5037098;28;1168;-73
2024/03/17 07:18:12;;;;;;;;;;;18.20;61.50;;;;;;5039205;28;1474;-73
2024/03/17 07:20:39;;;;;;;;;;;18.30;62.30;;;;;;5041824;28;1333;-71
2024/03/17 07:23:04;;;;;;;;;;;18.20;61.50;;;;;;5038433;28;1287;-71
2024/03/17 07:25:30;;;;;;;;;;;18.20;61.50;;;;;;5035764;28;1898;-70
2024/03/17 07:27:55;;;;;;;;;;;18.20;61.50;;;;;;5040099;28;1242;-70
2024/03/17 07:30:21;;;;;;;;;;;18.20;61.50;;;;;;5037841;28;1246;-71
2024/03/17 07:32:47;;;;;;;;;;;18.20;61.50;;;;;;5035595;28;1254;-71
2024/03/17 07:35:12;;;;;;;;;;;18.20;61.60;;;;;;5037324;28;1604;-70
2024/03/17 07:37:39;;;;;;;;;;;18.20;61.60;;;;;;5040624;28;1647;-71
2024/03/17 07:40:06;;;;;;;;;;;18.20;61.60;;;;;;5054672;28;1558;-71
2024/03/17 07:42:32;;;;;;;;;;;18.20;62.30;;;;;;5040810;28;1243;-71
2024/03/17 07:44:58;;;;;;;;;;;18.20;61.60;;;;;;5038225;28;1445;-71
2024/03/17 07:47:23;;;;;;;;;;;18.20;61.70;;;;;;5038864;28;1902;-68
2024/03/17 07:49:49;;;;;;;;;;;18.20;61.70;;;;;;5037320;28;1170;-71
2024/03/17 07:52:15;;;;;;;;;;;18.20;61.70;;;;;;5039422;28;1300;-71
2024/03/17 07:54:40;;;;;;;;;;;18.20;61.70;;;;;;5038265;28;1371;-71
2024/03/17 07:57:06;;;;;;;;;;;18.20;61.70;;;;;;5038613;28;1268;-70
2024/03/17 07:59:31;;;;;;;;;;;18.20;61.70;;;;;;5039844;28;1844;-70
2024/03/17 08:01:57;;;;;;;;;;;18.20;61.80;;;;;;5025446;28;1374;-71
2024/03/17 08:04:23;;;;;;;;;;;18.20;61.80;;;;;;5035844;28;2277;-72
2024/03/17 08:06:48;;;;;;;;;;;18.20;61.80;;;;;;5036533;28;2002;-72
2024/03/17 08:09:16;;;;;;;;;;;18.10;61.70;;;;;;5036619;28;1312;-72
2024/03/17 08:11:46;;;;;;;;;;;18.10;61.70;;;;;;5037227;28;1494;-73
2024/03/17 08:14:12;;;;;;;;;;;18.10;61.80;;;;;;5039034;28;1430;-71
2024/03/17 08:16:37;;;;;;;;;;;18.10;61.80;;;;;;5035007;28;1737;-71
2024/03/17 08:19:03;;;;;;;;;;;18.10;61.80;;;;;;5045930;28;1147;-71
2024/03/17 08:21:29;;;;;;;;;;;18.10;61.80;;;;;;5040671;28;1318;-71
2024/03/17 08:23:55;;;;;;;;;;;18.10;61.80;;;;;;5038774;28;1361;-71
2024/03/17 08:26:20;;;;;;;;;;;18.10;61.80;;;;;;5033900;28;1898;-71
2024/03/17 08:28:46;;;;;;;;;;;18.10;61.90;;;;;;5038331;28;1351;-71
2024/03/17 08:31:12;;;;;;;;;;;18.10;61.80;;;;;;5038634;28;1396;-71
2024/03/17 08:33:38;;;;;;;;;;;18.10;61.80;;;;;;5038872;28;1365;-71
2024/03/17 08:36:04;;;;;;;;;;;18.10;61.80;;;;;;5035121;28;1334;-71
2024/03/17 08:38:30;;;;;;;;;;;18.10;61.80;;;;;;5035580;28;900;-71
2024/03/17 08:40:56;;;;;;;;;;;18.10;61.90;;;;;;5038931;28;908;-72
2024/03/17 08:43:22;;;;;;;;;;;18.10;61.80;;;;;;5039809;28;1297;-72
2024/03/17 08:45:54;;;;;;;;;;;18.10;61.80;;;;;;5036533;28;1898;-70
2024/03/17 08:48:19;;;;;;;;;;;18.20;61.90;;;;;;5040963;28;1379;-69
2024/03/17 08:50:52;;;;;;;;;;;18.20;61.90;;;;;;5038224;28;1399;-70
2024/03/17 08:53:17;;;;;;;;;;;18.10;61.80;;;;;;5038667;28;1355;-70
2024/03/17 08:55:43;;;;;;;;;;;18.10;61.80;;;;;;5035188;28;1413;-70
2024/03/17 08:58:09;;;;;;;;;;;18.20;61.80;;;;;;5038948;28;1326;-70
2024/03/17 09:00:36;;;;;;;;;;;18.20;61.80;;;;;;5037749;28;1544;-70
2024/03/17 09:03:02;;;;;;;;;;;18.20;61.70;;;;;;5038731;28;1389;-70
2024/03/17 09:05:27;;;;;;;;;;;18.20;61.70;;;;;;5038910;28;1910;-70
2024/03/17 09:07:53;;;;;;;;;;;18.20;61.70;;;;;;5037325;28;1533;-70
2024/03/17 09:10:18;;;;;;;;;;;18.20;61.70;;;;;;5042415;28;1464;-70
2024/03/17 09:12:44;;;;;;;;;;;18.20;61.60;;;;;;5043559;28;1367;-70
2024/03/17 09:15:11;;;;;;;;;;;18.20;61.60;;;;;;5041867;28;1363;-70
2024/03/17 09:17:37;;;;;;;;;;;18.30;61.60;;;;;;5050059;28;1578;-70
2024/03/17 09:20:03;;;;;;;;;;;18.30;61.60;;;;;;5040717;28;1568;-72
2024/03/17 09:22:29;;;;;;;;;;;18.20;61.50;;;;;;5074346;28;1481;-71
2024/03/17 09:24:54;;;;;;;;;;;18.20;61.50;;;;;;5027595;28;1514;-71
2024/03/17 09:27:22;;;;;;;;;;;18.20;61.50;;;;;;5038189;28;1922;-71
2024/03/17 09:29:48;;;;;;;;;;;18.30;61.50;;;;;;5043759;28;1623;-72
2024/03/17 09:32:17;;;;;;;;;;;18.20;61.50;;;;;;5039441;28;1361;-71
2024/03/17 09:34:49;;;;;;;;;;;18.20;61.50;;;;;;5041247;28;1375;-72
2024/03/17 09:37:15;;;;;;;;;;;18.20;61.40;;;;;;5044179;28;1453;-72
2024/03/17 09:39:41;;;;;;;;;;;18.20;61.40;;;;;;5042017;28;1359;-72
2024/03/17 09:42:07;;;;;;;;;;;18.20;61.40;;;;;;5039805;28;1487;-72
2024/03/17 09:44:33;;;;;;;;;;;18.30;61.40;;;;;;5039033;28;1626;-72
2024/03/17 09:46:59;;;;;;;;;;;18.20;61.40;;;;;;5040860;28;1977;-74
2024/03/17 09:49:24;;;;;;;;;;;18.20;61.40;;;;;;5048300;28;1484;-73
2024/03/17 09:51:50;;;;;;;;;;;18.20;61.40;;;;;;5072375;28;1439;-72
2024/03/17 09:54:17;;;;;;;;;;;18.20;61.40;;;;;;5042799;28;1363;-73
2024/03/17 09:56:42;;;;;;;;;;;18.30;61.50;;;;;;5043468;28;1505;-70
2024/03/17 09:59:08;;;;;;;;;;;18.30;61.50;;;;;;5042654;28;1576;-70
2024/03/17 10:01:33;;;;;;;;;;;18.20;61.50;;;;;;5041932;28;1394;-74
2024/03/17 10:04:01;;;;;;;;;;;18.20;61.50;;;;;;5040644;28;1331;-72
2024/03/17 10:06:29;;;;;;;;;;;18.20;61.50;;;;;;5048311;28;1964;-71
2024/03/17 10:08:56;;;;;;;;;;;18.30;61.60;;;;;;5040674;28;1361;-73
2024/03/17 10:11:23;;;;;;;;;;;18.30;61.60;;;;;;5040587;28;1332;-71
2024/03/17 10:14:01;;;;;;;;;;;18.20;61.60;;;;;;5043900;28;1498;-71
2024/03/17 10:16:29;;;;;;;;;;;18.20;61.60;;;;;;5041149;28;1544;-70
2024/03/17 10:19:16;;;;;;;;;;;18.30;61.60;;;;;;5040425;28;1304;-71
2024/03/17 10:21:42;;;;;;;;;;;18.20;61.60;;;;;;5039735;28;1224;-71
2024/03/17 10:24:08;;;;;;;;;;;18.30;61.60;;;;;;5039826;28;1472;-71
2024/03/17 10:26:38;;;;;;;;;;;18.20;61.60;;;;;;5041085;28;1983;-71
2024/03/17 10:29:05;;;;;;;;;;;18.20;61.50;;;;;;5039044;28;1513;-71
2024/03/17 10:31:30;;;;;;;;;;;18.20;61.50;;;;;;5048048;28;1189;-70
2024/03/17 10:34:02;;;;;;;;;;;18.20;61.50;;;;;;5039853;28;1404;-71
2024/03/17 10:36:27;;;;;;;;;;;18.30;61.50;;;;;;5039283;28;1246;-70
2024/03/17 10:38:54;;;;;;;;;;;18.30;61.40;;;;;;5040444;28;1510;-71
2024/03/17 10:41:20;;;;;;;;;;;18.30;61.40;;;;;;5054158;28;1590;-71
2024/03/17 10:43:46;;;;;;;;;;;18.30;61.40;;;;;;5037507;28;1779;-70
2024/03/17 10:46:11;;;;;;;;;;;18.30;61.40;;;;;;5039888;28;1890;-71
2024/03/17 10:48:37;;;;;;;;;;;18.30;61.30;;;;;;5040537;28;1537;-71
2024/03/17 10:51:02;;;;;;;;;;;18.30;61.30;;;;;;5039044;28;1355;-71
2024/03/17 10:53:28;;;;;;;;;;;18.30;61.30;;;;;;5040212;28;1440;-71
2024/03/17 10:56:00;;;;;;;;;;;18.30;61.30;;;;;;5038868;28;1287;-71
2024/03/17 10:58:33;;;;;;;;;;;18.30;61.30;;;;;;5040350;28;1161;-70
2024/03/17 11:00:58;;;;;;;;;;;18.30;61.20;;;;;;5040309;28;1472;-71
2024/03/17 11:03:24;;;;;;;;;;;18.40;61.20;;;;;;5047139;28;1468;-71
2024/03/17 11:05:50;;;;;;;;;;;18.40;61.20;;;;;;5040286;28;1973;-71
2024/03/17 11:08:15;;;;;;;;;;;18.40;61.20;;;;;;5036860;28;1998;-71
2024/03/17 11:10:41;;;;;;;;;;;18.40;61.20;;;;;;5038805;28;1437;-71
2024/03/17 11:13:07;;;;;;;;;;;18.40;61.20;;;;;;5046748;28;1437;-71
2024/03/17 11:15:40;;;;;;;;;;;18.40;61.20;;;;;;5039805;28;1370;-71
2024/03/17 11:18:08;;;;;;;;;;;18.40;61.20;;;;;;5055677;28;1426;-71
2024/03/17 11:20:34;;;;;;;;;;;18.40;61.20;;;;;;5039491;28;1425;-71
2024/03/17 11:23:00;;;;;;;;;;;18.40;61.20;;;;;;5040266;28;1462;-71
2024/03/17 11:25:25;;;;;;;;;;;18.40;61.20;;;;;;5038922;28;1350;-69
2024/03/17 11:27:51;;;;;;;;;;;18.40;61.20;;;;;;5044679;28;1961;-71
2024/03/17 11:30:35;;;;;;;;;;;18.40;61.20;;;;;;5036207;28;2020;-70
2024/03/17 11:33:01;;;;;;;;;;;18.40;61.20;;;;;;5038391;28;1325;-71
2024/03/17 11:35:26;;;;;;;;;;;18.40;61.30;;;;;;5039226;28;1253;-71
2024/03/17 11:37:53;;;;;;;;;;;18.40;61.30;;;;;;5038369;28;1216;-71
2024/03/17 11:40:23;;;;;;;;;;;18.30;61.20;;;;;;5036868;28;1122;-71
2024/03/17 11:43:05;;;;;;;;;;;18.30;61.20;;;;;;5038803;28;1224;-72
2024/03/17 11:45:31;;;;;;;;;;;18.40;61.30;;;;;;5030520;28;1223;-71
2024/03/17 11:47:56;;;;;;;;;;;18.40;61.30;;;;;;5036783;28;1498;-71
2024/03/17 11:50:22;;;;;;;;;;;18.30;61.20;;;;;;5052290;28;1378;-72
2024/03/17 11:52:57;;;;;;;;;;;18.30;61.30;;;;;;5043038;28;1377;-70
2024/03/17 11:55:22;;;;;;;;;;;18.30;61.20;;;;;;5039759;28;1632;-71
2024/03/17 11:57:50;;;;;;;;;;;18.30;61.20;;;;;;5042393;28;1221;-71
2024/03/17 12:00:18;;;;;;;;;;;18.30;61.20;;;;;;5039411;28;1352;-71
2024/03/17 12:02:47;;;;;;;;;;;18.40;61.30;;;;;;5041718;28;1881;-71
2024/03/17 12:05:13;;;;;;;;;;;18.40;61.30;;;;;;5070103;28;2308;-72
2024/03/17 12:07:41;;;;;;;;;;;18.30;61.20;;;;;;5040364;28;1918;-70
2024/03/17 12:10:07;;;;;;;;;;;18.40;61.20;;;;;;5041341;28;1761;-72
2024/03/17 12:12:36;;;;;;;;;;;18.40;61.20;;;;;;5023625;28;1530;-71
2024/03/17 12:15:02;;;;;;;;;;;18.40;61.20;;;;;;5038746;28;1288;-72
2024/03/17 12:17:28;;;;;;;;;;;18.40;61.20;;;;;;5038369;28;1166;-72
2024/03/17 12:19:55;;;;;;;;;;;18.40;61.20;;;;;;5040875;28;1265;-72
2024/03/17 12:22:21;;;;;;;;;;;18.40;61.20;;;;;;5039895;28;1301;-72
2024/03/17 12:24:53;;;;;;;;;;;18.40;61.10;;;;;;5038804;28;1707;-72
2024/03/17 12:27:20;;;;;;;;;;;18.40;61.10;;;;;;5040834;28;1906;-72
2024/03/17 12:29:46;;;;;;;;;;;18.40;61.10;;;;;;5040925;28;1412;-70
2024/03/17 12:32:16;;;;;;;;;;;18.40;61.10;;;;;;5046181;28;1415;-71
2024/03/17 12:34:41;;;;;;;;;;;18.40;61.00;;;;;;5040281;28;1506;-71
2024/03/17 12:37:07;;;;;;;;;;;18.40;61.00;;;;;;5023177;28;1375;-71
2024/03/17 12:39:33;;;;;;;;;;;18.40;61.00;;;;;;5045813;28;1401;-70
2024/03/17 12:42:05;;;;;;;;;;;18.40;60.90;;;;;;5039338;28;1223;-71
2024/03/17 12:44:31;;;;;;;;;;;18.40;60.90;;;;;;5043113;28;1372;-71
2024/03/17 12:46:57;;;;;;;;;;;18.50;60.90;;;;;;5044592;28;1898;-71
2024/03/17 12:49:25;;;;;;;;;;;18.50;60.90;;;;;;5043255;28;1265;-72
2024/03/17 12:51:51;;;;;;;;;;;18.50;60.90;;;;;;5040325;28;1442;-72
2024/03/17 12:54:17;;;;;;;;;;;18.50;60.90;;;;;;5040216;28;1631;-72
2024/03/17 13:02:20;;;;;;;;;;;18.40;60.90;;;;;;5039033;28;1625;-72
2024/03/17 13:04:45;;;;;;;;;;;18.50;61.00;;;;;;5049952;28;1585;-71
2024/03/17 13:07:11;;;;;;;;;;;18.50;61.00;;;;;;5050303;28;1967;-72
2024/03/17 13:09:37;;;;;;;;;;;18.50;61.00;;;;;;5041276;28;1451;-71
2024/03/17 13:12:02;;;;;;;;;;;18.50;61.00;;;;;;5058399;28;1384;-71
2024/03/17 13:14:28;;;;;;;;;;;18.40;61.00;;;;;;5042538;28;1554;-71
2024/03/17 13:16:53;;;;;;;;;;;18.40;61.00;;;;;;5038720;28;1598;-72
2024/03/17 13:19:19;;;;;;;;;;;18.40;61.00;;;;;;5042240;28;1219;-71
2024/03/17 13:21:45;;;;;;;;;;;18.40;61.00;;;;;;5041809;28;1425;-72
2024/03/17 13:24:11;;;;;;;;;;;18.40;61.00;;;;;;5045424;28;1386;-71
2024/03/17 13:26:36;;;;;;;;;;;18.40;61.10;;;;;;5040791;28;1957;-71
2024/03/17 13:29:02;;;;;;;;;;;18.40;61.10;;;;;;5040933;28;1355;-71
2024/03/17 13:31:27;;;;;;;;;;;18.40;61.10;;;;;;5040058;28;1236;-71
2024/03/17 13:33:53;;;;;;;;;;;18.40;61.10;;;;;;5041479;28;1330;-71
2024/03/17 13:36:18;;;;;;;;;;;18.40;61.20;;;;;;5056671;28;1361;-71
2024/03/17 13:38:44;;;;;;;;;;;18.40;61.20;;;;;;5040858;28;1528;-71
2024/03/17 13:41:09;;;;;;;;;;;18.40;61.20;;;;;;5040957;28;1488;-71
2024/03/17 13:43:35;;;;;;;;;;;18.40;61.30;;;;;;5038984;28;1371;-71
2024/03/17 13:46:00;;;;;;;;;;;18.40;61.30;;;;;;5042722;28;1899;-71
2024/03/17 13:48:26;;;;;;;;;;;18.40;61.30;;;;;;5047706;28;1615;-71
2024/03/17 13:50:51;;;;;;;;;;;18.40;61.30;;;;;;5040229;28;1333;-70
2024/03/17 13:53:18;;;;;;;;;;;18.40;61.30;;;;;;5041523;28;1268;-70
2024/03/17 13:55:43;;;;;;;;;;;18.30;61.20;;;;;;5039918;28;1630;-71
2024/03/17 13:58:09;;;;;;;;;;;18.40;61.30;;;;;;5039666;28;1278;-72
2024/03/17 14:00:37;;;;;;;;;;;18.40;61.40;;;;;;5037259;28;1009;-71
2024/03/17 14:03:02;;;;;;;;;;;18.40;61.30;;;;;;5040498;28;1280;-72
2024/03/17 14:05:28;;;;;;;;;;;18.30;61.30;;;;;;5038376;28;971;-71
2024/03/17 14:07:54;;;;;;;;;;;18.40;61.40;;;;;;5073879;28;1910;-72
2024/03/17 14:10:19;;;;;;;;;;;18.30;61.30;;;;;;5041912;28;872;-71
2024/03/17 14:12:45;;;;;;;;;;;18.30;61.30;;;;;;5033196;28;1877;-72
2024/03/17 14:15:11;;;;;;;;;;;18.30;61.40;;;;;;5048209;28;1618;-72
2024/03/17 14:17:40;;;;;;;;;;;18.40;61.40;;;;;;5049265;28;952;-71
2024/03/17 14:20:13;;;;;;;;;;;18.30;61.30;;;;;;5040880;28;1069;-72
2024/03/17 14:22:42;;;;;;;;;;;18.30;61.30;;;;;;5040441;28;1266;-72
2024/03/17 14:25:09;;;;;;;;;;;18.30;61.30;;;;;;5039354;28;1417;-72
2024/03/17 14:27:35;;;;;;;;;;;18.30;61.30;;;;;;5038513;28;1910;-72
2024/03/17 14:30:01;;;;;;;;;;;18.40;61.30;;;;;;5040748;28;1568;-71
2024/03/17 14:32:27;;;;;;;;;;;18.40;61.30;;;;;;5041816;28;1489;-72